地図

経路データ

SID SEASON NUMBER BASIN SUBBASIN NAME ISO_TIME NATURE LAT LON WMO_WIND WMO_PRES WMO_AGENCY TRACK_TYPE DIST2LAND LANDFALL IFLAG USA_AGENCY USA_ATCF_ID USA_LAT USA_LON USA_RECORD USA_STATUS USA_WIND USA_PRES USA_SSHS USA_R34_NE USA_R34_SE USA_R34_SW USA_R34_NW USA_R50_NE USA_R50_SE USA_R50_SW USA_R50_NW USA_R64_NE USA_R64_SE USA_R64_SW USA_R64_NW USA_POCI USA_ROCI USA_RMW USA_EYE TOKYO_LAT TOKYO_LON TOKYO_GRADE TOKYO_WIND TOKYO_PRES TOKYO_R50_DIR TOKYO_R50_LONG TOKYO_R50_SHORT TOKYO_R30_DIR TOKYO_R30_LONG TOKYO_R30_SHORT TOKYO_LAND CMA_LAT CMA_LON CMA_CAT CMA_WIND CMA_PRES HKO_LAT HKO_LON HKO_CAT HKO_WIND HKO_PRES NEWDELHI_LAT NEWDELHI_LON NEWDELHI_GRADE NEWDELHI_WIND NEWDELHI_PRES NEWDELHI_CI NEWDELHI_DP NEWDELHI_POCI REUNION_LAT REUNION_LON REUNION_TYPE REUNION_WIND REUNION_PRES REUNION_TNUM REUNION_CI REUNION_RMW REUNION_R34_NE REUNION_R34_SE REUNION_R34_SW REUNION_R34_NW REUNION_R50_NE REUNION_R50_SE REUNION_R50_SW REUNION_R50_NW REUNION_R64_NE REUNION_R64_SE REUNION_R64_SW REUNION_R64_NW BOM_LAT BOM_LON BOM_TYPE BOM_WIND BOM_PRES BOM_TNUM BOM_CI BOM_RMW BOM_R34_NE BOM_R34_SE BOM_R34_SW BOM_R34_NW BOM_R50_NE BOM_R50_SE BOM_R50_SW BOM_R50_NW BOM_R64_NE BOM_R64_SE BOM_R64_SW BOM_R64_NW BOM_ROCI BOM_POCI BOM_EYE BOM_POS_METHOD BOM_PRES_METHOD NADI_LAT NADI_LON NADI_CAT NADI_WIND NADI_PRES WELLINGTON_LAT WELLINGTON_LON WELLINGTON_WIND WELLINGTON_PRES DS824_LAT DS824_LON DS824_STAGE DS824_WIND DS824_PRES TD9636_LAT TD9636_LON TD9636_STAGE TD9636_WIND TD9636_PRES TD9635_LAT TD9635_LON TD9635_WIND TD9635_PRES TD9635_ROCI NEUMANN_LAT NEUMANN_LON NEUMANN_CLASS NEUMANN_WIND NEUMANN_PRES MLC_LAT MLC_LON MLC_CLASS MLC_WIND MLC_PRES USA_GUST BOM_GUST BOM_GUST_PER REUNION_GUST REUNION_GUST_PER USA_SEAHGT USA_SEARAD_NE USA_SEARAD_SE USA_SEARAD_SW USA_SEARAD_NW STORM_SPEED STORM_DIR
1970158N21090 1970 47 NI BB NOT_NAMED 1970-06-06 18:00:00 TS 21.2000 89.7000 main 63 63 O________O____ jtwc_io IO041970 21.2000 89.7000 -1 21.2000 89.7000 TC 1 0
1970158N21090 1970 47 NI BB NOT_NAMED 1970-06-06 21:00:00 TS 21.2450 89.6700 main 63 49 P________P____ IO041970 21.2450 89.6700 -1 21.2450 89.6700 TC 1 317
1970158N21090 1970 47 NI BB NOT_NAMED 1970-06-07 00:00:00 TS 21.3000 89.6000 main 49 35 O________O____ jtwc_io IO041970 21.3000 89.6000 -1 21.3000 89.6000 TC 25 2 306
1970158N21090 1970 47 NI BB NOT_NAMED 1970-06-07 03:00:00 TS 21.3800 89.4689 main 35 22 P________PO___ IO041970 21.3775 89.4650 -1 21.3775 89.4650 TC 25 21.4000 89.5000 1 4 309
1970158N21090 1970 47 NI BB NOT_NAMED 1970-06-07 06:00:00 TS 21.5232 89.3023 main 23 0 O________OP___ jtwc_io IO041970 21.5000 89.3000 -1 21.5000 89.3000 TC 25 21.6158 89.3116 1 5 320
1970158N21090 1970 47 NI BB NOT_NAMED 1970-06-07 09:00:00 TS 21.7396 89.1442 main 10 0 P________PP___ IO041970 21.7150 89.1501 -1 21.7150 89.1501 TC 25 21.8052 89.1283 1 5 323
1970158N21090 1970 47 NI BB NOT_NAMED 1970-06-07 12:00:00 TS 21.9140 88.9853 main 0 0 O________OP___ jtwc_io IO041970 21.9000 89.0000 -1 21.9000 89.0000 TC 25 21.9420 88.9558 1 4 307
1970158N21090 1970 47 NI BB NOT_NAMED 1970-06-07 15:00:00 TS 21.9633 88.8283 main 0 0 P________PO___ IO041970 21.9450 88.8424 -1 21.9450 88.8424 TC 25 22.0000 88.8000 1 3 271
1970158N21090 1970 47 NI BB NOT_NAMED 1970-06-07 18:00:00 TS 21.9207 88.6886 main 10 0 O________OP___ jtwc_io IO041970 21.9000 88.7000 -1 21.9000 88.7000 TC 25 21.9621 88.6659 1 3 241
1970158N21090 1970 47 NI BB NOT_NAMED 1970-06-07 21:00:00 TS 21.8358 88.5749 main 0 0 P________PP___ IO041970 21.8300 88.5850 -1 21.8300 88.5850 TC 25 21.8474 88.5546 1 3 220
1970158N21090 1970 47 NI BB NOT_NAMED 1970-06-08 00:00:00 TS 21.6947 88.4887 main 0 0 O________OP___ jtwc_io IO041970 21.7000 88.5000 -1 21.7000 88.5000 TC 25 21.6840 88.4660 1 4 203
1970158N21090 1970 47 NI BB NOT_NAMED 1970-06-08 03:00:00 TS 21.5050 88.4283 main 11 11 P________PO___ IO041970 21.5075 88.4425 -1 21.5075 88.4425 TC 25 21.5000 88.4000 1 4 194
1970158N21090 1970 47 NI BB NOT_NAMED 1970-06-08 06:00:00 TS 21.3050 88.3872 main 33 33 O________OP___ jtwc_io IO041970 21.3000 88.4000 -1 21.3000 88.4000 TC 25 21.3150 88.3617 1 4 191
1970158N21090 1970 47 NI BB NOT_NAMED 1970-06-08 09:00:00 TS 21.1350 88.3426 main 55 55 P________PP___ IO041970 21.1425 88.3425 -1 21.1425 88.3425 TC 25 21.1199 88.3426 1 3 191
1970158N21090 1970 47 NI BB NOT_NAMED 1970-06-08 12:00:00 TS 20.9800 88.3091 main 67 67 O________OP___ jtwc_io IO041970 21.0000 88.3000 -1 21.0000 88.3000 TC 25 20.9400 88.3273 1 3 187
1970158N21090 1970 47 NI BB NOT_NAMED 1970-06-08 15:00:00 TS 20.8233 88.3050 main 89 89 P________PO___ IO041970 20.8350 88.3075 -1 20.8350 88.3075 TC 25 20.8000 88.3000 1 3 0
1970158N21090 1970 47 NI BB NOT_NAMED 1970-06-08 18:00:00 TS 20.6943 88.2918 main 100 100 O________OP___ jtwc_io IO041970 20.7000 88.3000 -1 20.7000 88.3000 TC 25 20.6829 88.2755 1 2 201
1970158N21090 1970 47 NI BB NOT_NAMED 1970-06-08 21:00:00 TS 20.6082 88.2255 main 111 111 P________PP___ IO041970 20.6050 88.2224 -1 20.6050 88.2224 TC 30 20.6147 88.2317 1 2 241
1970158N21090 1970 47 NI BB NOT_NAMED 1970-06-09 00:00:00 TS 20.6047 88.1157 main 112 102 O________OP___ jtwc_io IO041970 20.6000 88.1000 -1 20.6000 88.1000 TC 35 20.6141 88.1471 1 2 291
1970158N21090 1970 47 NI BB NOT_NAMED 1970-06-09 03:00:00 TS 20.6933 87.9865 main 102 83 P________PO___ IO041970 20.6899 87.9798 -1 20.6899 87.9798 TC 30 20.7000 88.0000 2 4 315
1970158N21090 1970 47 NI BB NOT_NAMED 1970-06-09 06:00:00 TS 20.9056 87.7993 main 83 49 O________OP___ jtwc_io IO041970 20.9000 87.8000 -1 20.9000 87.8000 TC 25 20.9169 87.7978 2 7 322
1970158N21090 1970 47 NI BB NOT_NAMED 1970-06-09 09:00:00 TS 21.2323 87.5396 main 45 0 P________PP___ IO041970 21.2424 87.5452 -1 21.2424 87.5452 TC 25 21.2120 87.5285 2 9 320
1970158N21090 1970 47 NI BB NOT_NAMED 1970-06-09 12:00:00 TS 21.5754 87.1983 main 0 0 O________OP___ jtwc_io IO041970 21.6000 87.2000 -1 21.6000 87.2000 TC 25 21.5261 87.1948 2 9 310
1970158N21090 1970 47 NI BB NOT_NAMED 1970-06-09 15:00:00 TS 21.8250 86.7866 main 0 0 P________PO___ IO041970 21.8375 86.7799 -1 21.8375 86.7799 TC 25 21.8000 86.8000 1 9 297
1970158N21090 1970 47 NI BB NOT_NAMED 1970-06-09 18:00:00 TS 21.9916 86.3219 main 0 0 O________OP___ jtwc_io IO041970 22.0000 86.3000 -1 22.0000 86.3000 TC 25 21.9748 86.3656 1 9 288
1970158N21090 1970 47 NI BB NOT_NAMED 1970-06-09 21:00:00 TS 22.1191 85.8300 main 0 0 P________PP___ IO041970 22.1299 85.8075 -1 22.1299 85.8075 TC 25 22.0975 85.8751 1 10 282
1970158N21090 1970 47 NI BB NOT_NAMED 1970-06-10 00:00:00 TS 22.1905 85.3157 main 0 0 O________OP___ jtwc_io IO041970 22.2000 85.3000 -1 22.2000 85.3000 TC 25 22.1715 85.3470 1 10 276
1970158N21090 1970 47 NI BB NOT_NAMED 1970-06-10 03:00:00 TS 22.2148 84.8050 main 0 0 P________PO___ IO041970 22.2223 84.8074 -1 22.2223 84.8074 TC 25 22.2000 84.8000 1 10 271
1970158N21090 1970 47 NI BB NOT_NAMED 1970-06-10 06:00:00 TS 22.2003 84.2880 main 0 0 O________OP___ jtwc_io IO041970 22.2000 84.3000 -1 22.2000 84.3000 TC 25 22.2009 84.2639 1 10 267
1970158N21090 1970 47 NI BB NOT_NAMED 1970-06-10 09:00:00 TS 22.1631 83.7432 main 0 0 P________PP___ IO041970 22.1649 83.7575 -1 22.1649 83.7575 TC 25 22.1595 83.7145 1 10 264
1970158N21090 1970 47 NI BB NOT_NAMED 1970-06-10 12:00:00 TS 22.0961 83.1860 main 0 0 O________OP___ jtwc_io IO041970 22.1000 83.2000 -1 22.1000 83.2000 TC 25 22.0884 83.1578 1 10 261
1970158N21090 1970 47 NI BB NOT_NAMED 1970-06-10 15:00:00 TS 22.0049 82.6333 main 0 0 P________PO___ IO041970 22.0073 82.6500 -1 22.0073 82.6500 TC 25 22.0000 82.6000 1 10 259
1970158N21090 1970 47 NI BB NOT_NAMED 1970-06-10 18:00:00 TS 21.9020 82.0782 main 0 0 O________OP___ jtwc_io IO041970 21.9000 82.1000 -1 21.9000 82.1000 TC 25 21.9051 82.0456 1 10 259
1970158N21090 1970 47 NI BB NOT_NAMED 1970-06-10 21:00:00 TS 21.8015 81.5263 main 0 0 P________PP___ IO041970 21.7979 81.5499 -1 21.7979 81.5499 TC 25 21.8063 81.4947 1 10 259
1970158N21090 1970 47 NI BB NOT_NAMED 1970-06-11 00:00:00 TS 21.7022 80.9733 main 0 0 O________OP___ jtwc_io IO041970 21.7000 81.0000 -1 21.7000 81.0000 TC 25 21.7044 80.9465 1 11 259
1970158N21090 1970 47 NI BB NOT_NAMED 1970-06-11 03:00:00 NR 21.6000 80.4000 main 0 __________O___ IO041970 -1 TC 21.6000 80.4000 1 11 259

IBTrACS Databaseについて

本データベースは、米国NOAAが公開する1842年以降の世界の熱帯低気圧のベストトラックデータアーカイブInternational Best Track Archive for Climate Stewardship (IBTrACS)を、ウェブで閲覧しやすい形式に変換したものです。

最終更新日:2021-12-06